sensor_id;sensor_type;location;lat;lon;timestamp;pressure;altitude;pressure_sealevel;temperature;humidity
6528;BME280;64597;42.664;23.256;2023-07-30T00:01:05;94396.91;;;21.65;49.76
6528;BME280;64597;42.664;23.256;2023-07-30T00:03:31;94426.84;;;21.81;49.67
6528;BME280;64597;42.664;23.256;2023-07-30T00:05:56;94425.69;;;21.73;50.09
6528;BME280;64597;42.664;23.256;2023-07-30T00:08:22;94422.03;;;21.69;50.01
6528;BME280;64597;42.664;23.256;2023-07-30T00:10:49;94422.34;;;21.68;50.13
6528;BME280;64597;42.664;23.256;2023-07-30T00:13:14;94418.03;;;21.58;49.84
6528;BME280;64597;42.664;23.256;2023-07-30T00:15:40;94405.94;;;21.47;49.97
6528;BME280;64597;42.664;23.256;2023-07-30T00:18:06;94385.84;;;21.36;49.89
6528;BME280;64597;42.664;23.256;2023-07-30T00:20:31;94417.16;;;21.49;49.98
6528;BME280;64597;42.664;23.256;2023-07-30T00:22:56;94399.53;;;21.34;50.13
6528;BME280;64597;42.664;23.256;2023-07-30T00:25:22;94412.53;;;21.41;50.22
6528;BME280;64597;42.664;23.256;2023-07-30T00:27:47;94416.13;;;21.37;50.45
6528;BME280;64597;42.664;23.256;2023-07-30T00:30:13;94408.56;;;21.39;50.25
6528;BME280;64597;42.664;23.256;2023-07-30T00:32:38;94407.00;;;21.38;50.24
6528;BME280;64597;42.664;23.256;2023-07-30T00:35:10;94390.94;;;21.24;50.53
6528;BME280;64597;42.664;23.256;2023-07-30T00:37:35;94389.47;;;21.18;50.75
6528;BME280;64597;42.664;23.256;2023-07-30T00:40:02;94390.34;;;21.27;50.76
6528;BME280;64597;42.664;23.256;2023-07-30T00:42:28;94399.63;;;21.21;51.02
6528;BME280;64597;42.664;23.256;2023-07-30T00:44:53;94372.75;;;20.99;51.12
6528;BME280;64597;42.664;23.256;2023-07-30T00:47:19;94400.34;;;21.13;51.00
6528;BME280;64597;42.664;23.256;2023-07-30T00:49:45;94389.06;;;21.02;50.93
6528;BME280;64597;42.664;23.256;2023-07-30T00:52:11;94400.34;;;21.13;50.78
6528;BME280;64597;42.664;23.256;2023-07-30T00:54:38;94403.50;;;21.15;51.05
6528;BME280;64597;42.664;23.256;2023-07-30T00:57:05;94396.06;;;21.12;51.29
6528;BME280;64597;42.664;23.256;2023-07-30T00:59:32;94401.41;;;21.12;51.58
6528;BME280;64597;42.664;23.256;2023-07-30T01:01:58;94399.66;;;21.07;51.46
6528;BME280;64597;42.664;23.256;2023-07-30T01:04:25;94399.78;;;21.02;51.81
6528;BME280;64597;42.664;23.256;2023-07-30T01:06:50;94402.25;;;20.99;51.68
6528;BME280;64597;42.664;23.256;2023-07-30T01:09:16;94401.75;;;20.97;51.51
6528;BME280;64597;42.664;23.256;2023-07-30T01:11:43;94401.06;;;20.91;51.58
6528;BME280;64597;42.664;23.256;2023-07-30T01:14:09;94392.25;;;20.91;51.70
6528;BME280;64597;42.664;23.256;2023-07-30T01:16:35;94407.13;;;20.83;52.21
6528;BME280;64597;42.664;23.256;2023-07-30T01:19:01;94415.00;;;20.80;52.14
6528;BME280;64597;42.664;23.256;2023-07-30T01:21:34;94415.59;;;20.77;52.05
6528;BME280;64597;42.664;23.256;2023-07-30T01:24:00;94408.28;;;20.69;52.08
6528;BME280;64597;42.664;23.256;2023-07-30T01:26:37;94401.31;;;20.68;52.36
6528;BME280;64597;42.664;23.256;2023-07-30T01:29:08;94409.56;;;20.58;53.02
6528;BME280;64597;42.664;23.256;2023-07-30T01:31:35;94402.75;;;20.51;53.17
6528;BME280;64597;42.664;23.256;2023-07-30T01:34:03;94415.16;;;20.47;53.13
6528;BME280;64597;42.664;23.256;2023-07-30T01:36:30;94403.94;;;20.45;52.88
6528;BME280;64597;42.664;23.256;2023-07-30T01:38:57;94407.41;;;20.46;52.88
6528;BME280;64597;42.664;23.256;2023-07-30T01:41:24;94415.72;;;20.44;52.84
6528;BME280;64597;42.664;23.256;2023-07-30T01:43:50;94405.13;;;20.39;52.98
6528;BME280;64597;42.664;23.256;2023-07-30T01:46:15;94412.28;;;20.44;52.41
6528;BME280;64597;42.664;23.256;2023-07-30T01:48:41;94414.03;;;20.48;52.47
6528;BME280;64597;42.664;23.256;2023-07-30T01:51:06;94414.16;;;20.43;52.26
6528;BME280;64597;42.664;23.256;2023-07-30T01:53:31;94409.78;;;20.47;52.25
6528;BME280;64597;42.664;23.256;2023-07-30T01:55:57;94418.72;;;20.43;52.13
6528;BME280;64597;42.664;23.256;2023-07-30T01:58:22;94427.94;;;20.37;52.21
6528;BME280;64597;42.664;23.256;2023-07-30T02:00:48;94418.72;;;20.29;52.72
6528;BME280;64597;42.664;23.256;2023-07-30T02:03:13;94421.09;;;20.31;52.61
6528;BME280;64597;42.664;23.256;2023-07-30T02:05:39;94420.78;;;20.32;52.33
6528;BME280;64597;42.664;23.256;2023-07-30T02:08:04;94423.47;;;20.32;52.55
6528;BME280;64597;42.664;23.256;2023-07-30T02:10:29;94421.69;;;20.28;52.82
6528;BME280;64597;42.664;23.256;2023-07-30T02:12:55;94424.56;;;20.31;52.80
6528;BME280;64597;42.664;23.256;2023-07-30T02:15:20;94423.09;;;20.25;53.03
6528;BME280;64597;42.664;23.256;2023-07-30T02:17:46;94423.75;;;20.17;53.18
6528;BME280;64597;42.664;23.256;2023-07-30T02:20:11;94414.13;;;20.16;53.30
6528;BME280;64597;42.664;23.256;2023-07-30T02:22:37;94431.28;;;20.15;53.39
6528;BME280;64597;42.664;23.256;2023-07-30T02:25:02;94425.22;;;20.10;53.46
6528;BME280;64597;42.664;23.256;2023-07-30T02:27:28;94421.03;;;20.04;53.27
6528;BME280;64597;42.664;23.256;2023-07-30T02:29:53;94428.69;;;20.10;53.17
6528;BME280;64597;42.664;23.256;2023-07-30T02:32:18;94427.19;;;20.04;53.11
6528;BME280;64597;42.664;23.256;2023-07-30T02:34:44;94436.53;;;20.07;53.12
6528;BME280;64597;42.664;23.256;2023-07-30T02:37:09;94431.19;;;20.07;53.12
6528;BME280;64597;42.664;23.256;2023-07-30T02:39:35;94393.06;;;19.69;53.18
6528;BME280;64597;42.664;23.256;2023-07-30T02:42:00;94442.06;;;19.97;53.51
6528;BME280;64597;42.664;23.256;2023-07-30T02:44:25;94433.91;;;19.88;53.54
6528;BME280;64597;42.664;23.256;2023-07-30T02:46:51;94438.28;;;19.98;53.27
6528;BME280;64597;42.664;23.256;2023-07-30T02:49:16;94441.56;;;19.95;53.66
6528;BME280;64597;42.664;23.256;2023-07-30T02:51:42;94437.09;;;19.90;53.80
6528;BME280;64597;42.664;23.256;2023-07-30T02:54:13;94442.34;;;19.95;53.56
6528;BME280;64597;42.664;23.256;2023-07-30T02:56:39;94443.94;;;19.96;53.74
6528;BME280;64597;42.664;23.256;2023-07-30T02:59:04;94432.66;;;19.99;54.01
6528;BME280;64597;42.664;23.256;2023-07-30T03:01:30;94441.84;;;19.93;53.88
6528;BME280;64597;42.664;23.256;2023-07-30T03:03:55;94436.59;;;19.88;53.58
6528;BME280;64597;42.664;23.256;2023-07-30T03:06:20;94438.78;;;19.86;54.49
6528;BME280;64597;42.664;23.256;2023-07-30T03:08:46;94443.19;;;19.77;54.75
6528;BME280;64597;42.664;23.256;2023-07-30T03:11:12;94435.66;;;19.65;54.58
6528;BME280;64597;42.664;23.256;2023-07-30T03:13:38;94445.38;;;19.75;54.28
6528;BME280;64597;42.664;23.256;2023-07-30T03:16:04;94433.69;;;19.71;54.68
6528;BME280;64597;42.664;23.256;2023-07-30T03:18:29;94436.34;;;19.71;54.56
6528;BME280;64597;42.664;23.256;2023-07-30T03:21:02;94435.84;;;19.69;54.51
6528;BME280;64597;42.664;23.256;2023-07-30T03:23:28;94437.94;;;19.72;54.33
6528;BME280;64597;42.664;23.256;2023-07-30T03:25:54;94427.94;;;19.64;54.57
6528;BME280;64597;42.664;23.256;2023-07-30T03:28:19;94439.13;;;19.66;54.55
6528;BME280;64597;42.664;23.256;2023-07-30T03:30:45;94433.69;;;19.71;54.16
6528;BME280;64597;42.664;23.256;2023-07-30T03:33:11;94430.50;;;19.69;54.37
6528;BME280;64597;42.664;23.256;2023-07-30T03:35:37;94434.19;;;19.73;54.56
6528;BME280;64597;42.664;23.256;2023-07-30T03:38:03;94405.69;;;19.50;54.94
6528;BME280;64597;42.664;23.256;2023-07-30T03:40:29;94421.66;;;19.55;55.15
6528;BME280;64597;42.664;23.256;2023-07-30T03:42:54;94426.94;;;19.60;55.67
6528;BME280;64597;42.664;23.256;2023-07-30T03:45:20;94441.50;;;19.67;55.43
6528;BME280;64597;42.664;23.256;2023-07-30T03:47:45;94440.19;;;19.65;55.39
6528;BME280;64597;42.664;23.256;2023-07-30T03:50:11;94425.44;;;19.54;55.49
6528;BME280;64597;42.664;23.256;2023-07-30T03:52:37;94451.13;;;19.68;54.73
6528;BME280;64597;42.664;23.256;2023-07-30T03:55:02;94447.56;;;19.73;54.93
6528;BME280;64597;42.664;23.256;2023-07-30T03:57:28;94447.78;;;19.77;54.78
6528;BME280;64597;42.664;23.256;2023-07-30T03:59:53;94453.13;;;19.77;54.78
6528;BME280;64597;42.664;23.256;2023-07-30T04:02:19;94449.34;;;19.78;54.77
6528;BME280;64597;42.664;23.256;2023-07-30T04:04:44;94451.72;;;19.79;54.68
6528;BME280;64597;42.664;23.256;2023-07-30T04:07:11;94455.91;;;19.85;54.68
6528;BME280;64597;42.664;23.256;2023-07-30T04:09:36;94462.25;;;19.89;54.72
6528;BME280;64597;42.664;23.256;2023-07-30T04:12:02;94456.91;;;19.89;54.86
6528;BME280;64597;42.664;23.256;2023-07-30T04:14:28;94454.16;;;19.94;55.11
6528;BME280;64597;42.664;23.256;2023-07-30T04:16:53;94457.31;;;19.96;54.54
6528;BME280;64597;42.664;23.256;2023-07-30T04:19:19;94449.69;;;19.90;55.04
6528;BME280;64597;42.664;23.256;2023-07-30T04:21:44;94442.53;;;19.85;54.73
6528;BME280;64597;42.664;23.256;2023-07-30T04:24:10;94467.47;;;19.99;54.69
6528;BME280;64597;42.664;23.256;2023-07-30T04:26:35;94438.66;;;19.91;54.51
6528;BME280;64597;42.664;23.256;2023-07-30T04:29:01;94468.03;;;20.10;54.41
6528;BME280;64597;42.664;23.256;2023-07-30T04:31:26;94450.22;;;20.05;54.55
6528;BME280;64597;42.664;23.256;2023-07-30T04:33:52;94462.75;;;20.23;54.58
6528;BME280;64597;42.664;23.256;2023-07-30T04:36:17;94455.72;;;20.27;54.71
6528;BME280;64597;42.664;23.256;2023-07-30T04:38:42;94437.84;;;20.23;54.58
6528;BME280;64597;42.664;23.256;2023-07-30T04:41:08;94447.06;;;20.30;54.28
6528;BME280;64597;42.664;23.256;2023-07-30T04:43:33;94465.72;;;20.49;54.35
6528;BME280;64597;42.664;23.256;2023-07-30T04:45:59;94470.00;;;20.50;54.47
6528;BME280;64597;42.664;23.256;2023-07-30T04:48:24;94466.63;;;20.58;54.00
6528;BME280;64597;42.664;23.256;2023-07-30T04:50:50;94465.13;;;20.66;53.87
6528;BME280;64597;42.664;23.256;2023-07-30T04:53:15;94467.59;;;20.76;53.57
6528;BME280;64597;42.664;23.256;2023-07-30T04:55:42;94465.31;;;20.83;53.75
6528;BME280;64597;42.664;23.256;2023-07-30T04:58:07;94463.31;;;20.88;53.85
6528;BME280;64597;42.664;23.256;2023-07-30T05:00:33;94467.47;;;20.94;53.61
6528;BME280;64597;42.664;23.256;2023-07-30T05:02:58;94459.13;;;20.96;53.18
6528;BME280;64597;42.664;23.256;2023-07-30T05:05:24;94463.53;;;21.05;53.09
6528;BME280;64597;42.664;23.256;2023-07-30T05:07:49;94461.53;;;21.11;53.20
6528;BME280;64597;42.664;23.256;2023-07-30T05:10:15;94455.53;;;21.14;53.20
6528;BME280;64597;42.664;23.256;2023-07-30T05:12:42;94446.00;;;21.21;52.98
6528;BME280;64597;42.664;23.256;2023-07-30T05:15:08;94444.00;;;21.27;52.64
6528;BME280;64597;42.664;23.256;2023-07-30T05:17:34;94459.13;;;21.45;52.53
6528;BME280;64597;42.664;23.256;2023-07-30T05:19:59;94459.19;;;21.54;52.81
6528;BME280;64597;42.664;23.256;2023-07-30T05:22:25;94462.75;;;21.63;52.56
6528;BME280;64597;42.664;23.256;2023-07-30T05:24:51;94456.09;;;21.82;54.28
6528;BME280;64597;42.664;23.256;2023-07-30T05:27:16;94446.13;;;22.75;53.52
6528;BME280;64597;42.664;23.256;2023-07-30T05:29:42;94432.28;;;23.41;51.03
6528;BME280;64597;42.664;23.256;2023-07-30T05:32:08;94463.91;;;24.04;49.04
6528;BME280;64597;42.664;23.256;2023-07-30T05:34:33;94456.69;;;24.42;47.25
6528;BME280;64597;42.664;23.256;2023-07-30T05:36:59;94446.25;;;24.70;46.49
6528;BME280;64597;42.664;23.256;2023-07-30T05:39:24;94454.41;;;24.91;45.73
6528;BME280;64597;42.664;23.256;2023-07-30T05:41:49;94450.16;;;25.10;45.27
6528;BME280;64597;42.664;23.256;2023-07-30T05:44:16;94451.94;;;25.27;44.41
6528;BME280;64597;42.664;23.256;2023-07-30T05:46:41;94459.16;;;25.44;44.00
6528;BME280;64597;42.664;23.256;2023-07-30T05:49:07;94444.16;;;25.55;43.52
6528;BME280;64597;42.664;23.256;2023-07-30T05:51:32;94451.81;;;25.53;43.21
6528;BME280;64597;42.664;23.256;2023-07-30T05:53:58;94456.88;;;25.87;42.74
6528;BME280;64597;42.664;23.256;2023-07-30T05:56:23;94456.94;;;25.99;42.42
6528;BME280;64597;42.664;23.256;2023-07-30T05:58:49;94464.66;;;26.09;44.70
6528;BME280;64597;42.664;23.256;2023-07-30T06:01:14;94464.38;;;26.23;44.59
6528;BME280;64597;42.664;23.256;2023-07-30T06:03:40;94464.03;;;26.36;44.37
6528;BME280;64597;42.664;23.256;2023-07-30T06:06:05;94464.88;;;26.61;43.44
6528;BME280;64597;42.664;23.256;2023-07-30T06:08:31;94460.06;;;26.78;42.38
6528;BME280;64597;42.664;23.256;2023-07-30T06:11:01;94460.03;;;27.03;41.27
6528;BME280;64597;42.664;23.256;2023-07-30T06:13:27;94461.59;;;27.28;40.92
6528;BME280;64597;42.664;23.256;2023-07-30T06:15:52;94459.44;;;27.57;40.25
6528;BME280;64597;42.664;23.256;2023-07-30T06:18:18;94453.53;;;27.67;40.26
6528;BME280;64597;42.664;23.256;2023-07-30T06:20:43;94464.59;;;28.02;39.64
6528;BME280;64597;42.664;23.256;2023-07-30T06:23:08;94460.00;;;28.18;39.32
6528;BME280;64597;42.664;23.256;2023-07-30T06:25:34;94461.78;;;28.42;38.62
6528;BME280;64597;42.664;23.256;2023-07-30T06:27:59;94459.28;;;28.65;38.91
6528;BME280;64597;42.664;23.256;2023-07-30T06:30:25;94466.75;;;28.99;38.92
6528;BME280;64597;42.664;23.256;2023-07-30T06:32:50;94439.47;;;29.11;37.55
6528;BME280;64597;42.664;23.256;2023-07-30T06:35:16;94419.44;;;29.35;36.57
6528;BME280;64597;42.664;23.256;2023-07-30T06:37:42;94439.88;;;30.01;36.35
6528;BME280;64597;42.664;23.256;2023-07-30T06:40:07;94442.88;;;30.35;36.14
6528;BME280;64597;42.664;23.256;2023-07-30T06:42:33;94444.94;;;30.64;35.06
6528;BME280;64597;42.664;23.256;2023-07-30T06:44:58;94435.22;;;30.85;33.73
6528;BME280;64597;42.664;23.256;2023-07-30T06:47:24;94425.69;;;30.99;34.03
6528;BME280;64597;42.664;23.256;2023-07-30T06:49:50;94431.81;;;31.18;33.67
6528;BME280;64597;42.664;23.256;2023-07-30T06:52:16;94429.44;;;31.39;33.08
6528;BME280;64597;42.664;23.256;2023-07-30T06:54:41;94429.59;;;31.50;33.17
6528;BME280;64597;42.664;23.256;2023-07-30T06:57:07;94426.94;;;31.87;30.06
6528;BME280;64597;42.664;23.256;2023-07-30T06:59:33;94430.69;;;32.05;30.99
6528;BME280;64597;42.664;23.256;2023-07-30T07:01:59;94429.38;;;32.28;30.76
6528;BME280;64597;42.664;23.256;2023-07-30T07:04:25;94426.09;;;32.49;29.80
6528;BME280;64597;42.664;23.256;2023-07-30T07:06:51;94412.13;;;32.54;29.06
6528;BME280;64597;42.664;23.256;2023-07-30T07:09:16;94418.81;;;32.60;30.83
6528;BME280;64597;42.664;23.256;2023-07-30T07:11:42;94417.28;;;32.63;29.61
6528;BME280;64597;42.664;23.256;2023-07-30T07:14:08;94420.56;;;32.86;29.19
6528;BME280;64597;42.664;23.256;2023-07-30T07:16:33;94413.38;;;33.11;28.09
6528;BME280;64597;42.664;23.256;2023-07-30T07:18:58;94405.34;;;33.39;27.57
6528;BME280;64597;42.664;23.256;2023-07-30T07:21:24;94400.03;;;33.60;27.98
6528;BME280;64597;42.664;23.256;2023-07-30T07:23:51;94411.19;;;33.38;28.15
6528;BME280;64597;42.664;23.256;2023-07-30T07:26:17;94395.31;;;33.57;27.73
6528;BME280;64597;42.664;23.256;2023-07-30T07:28:42;94387.53;;;33.63;28.91
6528;BME280;64597;42.664;23.256;2023-07-30T07:31:08;94364.53;;;33.78;27.46
6528;BME280;64597;42.664;23.256;2023-07-30T07:33:33;94387.72;;;34.05;27.48
6528;BME280;64597;42.664;23.256;2023-07-30T07:36:05;94387.75;;;34.16;28.35
6528;BME280;64597;42.664;23.256;2023-07-30T07:38:32;94396.41;;;34.42;27.43
6528;BME280;64597;42.664;23.256;2023-07-30T07:40:59;94374.47;;;34.35;26.63
6528;BME280;64597;42.664;23.256;2023-07-30T07:43:27;94385.81;;;34.23;27.00
6528;BME280;64597;42.664;23.256;2023-07-30T07:45:54;94383.09;;;34.37;27.18
6528;BME280;64597;42.664;23.256;2023-07-30T07:48:22;94373.75;;;34.70;26.63
6528;BME280;64597;42.664;23.256;2023-07-30T07:50:47;94371.00;;;34.52;27.44
6528;BME280;64597;42.664;23.256;2023-07-30T07:53:13;94343.19;;;34.36;26.25
6528;BME280;64597;42.664;23.256;2023-07-30T07:55:38;94376.09;;;34.57;26.67
6528;BME280;64597;42.664;23.256;2023-07-30T07:58:04;94378.47;;;34.73;25.83
6528;BME280;64597;42.664;23.256;2023-07-30T08:00:29;94366.31;;;34.74;25.38
6528;BME280;64597;42.664;23.256;2023-07-30T08:02:55;94381.59;;;35.14;24.91
6528;BME280;64597;42.664;23.256;2023-07-30T08:05:20;94378.00;;;35.31;24.49
6528;BME280;64597;42.664;23.256;2023-07-30T08:07:46;94372.06;;;35.64;23.23
6528;BME280;64597;42.664;23.256;2023-07-30T08:10:12;94362.66;;;35.65;23.05
6528;BME280;64597;42.664;23.256;2023-07-30T08:12:37;94364.66;;;35.54;23.32
6528;BME280;64597;42.664;23.256;2023-07-30T08:15:03;94354.91;;;35.25;23.36
6528;BME280;64597;42.664;23.256;2023-07-30T08:17:29;94350.22;;;35.25;23.45
6528;BME280;64597;42.664;23.256;2023-07-30T08:19:54;94343.91;;;35.46;23.19
6528;BME280;64597;42.664;23.256;2023-07-30T08:22:20;94370.38;;;35.91;22.74
6528;BME280;64597;42.664;23.256;2023-07-30T08:24:46;94367.00;;;36.38;22.22
6528;BME280;64597;42.664;23.256;2023-07-30T08:27:11;94365.34;;;36.52;21.50
6528;BME280;64597;42.664;23.256;2023-07-30T08:29:37;94362.78;;;36.78;21.40
6528;BME280;64597;42.664;23.256;2023-07-30T08:32:02;94357.09;;;37.06;20.45
6528;BME280;64597;42.664;23.256;2023-07-30T08:34:28;94359.91;;;36.99;20.83
6528;BME280;64597;42.664;23.256;2023-07-30T08:36:53;94349.03;;;36.82;20.94
6528;BME280;64597;42.664;23.256;2023-07-30T08:39:19;94350.72;;;37.16;20.83
6528;BME280;64597;42.664;23.256;2023-07-30T08:41:45;94346.63;;;37.35;20.93
6528;BME280;64597;42.664;23.256;2023-07-30T08:44:12;94349.84;;;37.23;21.48
6528;BME280;64597;42.664;23.256;2023-07-30T08:46:37;94322.78;;;37.18;21.10
6528;BME280;64597;42.664;23.256;2023-07-30T08:49:02;94344.13;;;37.44;21.28
6528;BME280;64597;42.664;23.256;2023-07-30T08:51:29;94334.94;;;37.58;20.61
6528;BME280;64597;42.664;23.256;2023-07-30T08:53:56;94336.47;;;37.92;20.23
6528;BME280;64597;42.664;23.256;2023-07-30T08:56:22;94326.41;;;38.09;19.57
6528;BME280;64597;42.664;23.256;2023-07-30T08:58:49;94333.44;;;37.53;19.66
6528;BME280;64597;42.664;23.256;2023-07-30T09:01:17;94310.75;;;37.72;19.66
6528;BME280;64597;42.664;23.256;2023-07-30T09:03:43;94324.47;;;38.10;18.57
6528;BME280;64597;42.664;23.256;2023-07-30T09:06:09;94325.84;;;38.25;19.56
6528;BME280;64597;42.664;23.256;2023-07-30T09:08:34;94325.41;;;38.53;19.27
6528;BME280;64597;42.664;23.256;2023-07-30T09:11:09;94327.38;;;38.79;18.72
6528;BME280;64597;42.664;23.256;2023-07-30T09:13:40;94328.72;;;38.91;17.27
6528;BME280;64597;42.664;23.256;2023-07-30T09:16:12;94327.81;;;38.24;18.05
6528;BME280;64597;42.664;23.256;2023-07-30T09:18:58;94309.56;;;38.34;17.06
6528;BME280;64597;42.664;23.256;2023-07-30T09:21:31;94319.69;;;38.67;17.79
6528;BME280;64597;42.664;23.256;2023-07-30T09:23:56;94321.59;;;38.93;17.96
6528;BME280;64597;42.664;23.256;2023-07-30T09:26:23;94320.78;;;38.96;16.69
6528;BME280;64597;42.664;23.256;2023-07-30T09:28:48;94314.06;;;39.20;16.97
6528;BME280;64597;42.664;23.256;2023-07-30T09:31:14;94317.09;;;39.26;17.25
6528;BME280;64597;42.664;23.256;2023-07-30T09:33:42;94319.72;;;39.52;16.37
6528;BME280;64597;42.664;23.256;2023-07-30T09:36:08;94305.31;;;39.65;16.37
6528;BME280;64597;42.664;23.256;2023-07-30T09:38:42;94302.59;;;39.81;16.39
6528;BME280;64597;42.664;23.256;2023-07-30T09:41:08;94292.13;;;39.92;16.14
6528;BME280;64597;42.664;23.256;2023-07-30T09:43:35;94298.41;;;40.28;16.70
6528;BME280;64597;42.664;23.256;2023-07-30T09:46:02;94287.94;;;40.19;15.94
6528;BME280;64597;42.664;23.256;2023-07-30T09:48:30;94295.38;;;40.06;15.60
6528;BME280;64597;42.664;23.256;2023-07-30T09:50:59;94267.84;;;39.44;16.20
6528;BME280;64597;42.664;23.256;2023-07-30T09:53:24;94281.72;;;39.60;16.30
6528;BME280;64597;42.664;23.256;2023-07-30T09:55:50;94282.72;;;39.30;16.24
6528;BME280;64597;42.664;23.256;2023-07-30T09:58:16;94284.56;;;39.57;16.40
6528;BME280;64597;42.664;23.256;2023-07-30T10:00:43;94287.25;;;39.80;16.11
6528;BME280;64597;42.664;23.256;2023-07-30T10:03:10;94282.69;;;39.89;16.02
6528;BME280;64597;42.664;23.256;2023-07-30T10:05:38;94274.69;;;39.95;15.43
6528;BME280;64597;42.664;23.256;2023-07-30T10:08:10;94283.88;;;40.08;16.04
6528;BME280;64597;42.664;23.256;2023-07-30T10:10:39;94270.88;;;40.24;15.36
6528;BME280;64597;42.664;23.256;2023-07-30T10:13:06;94266.47;;;40.11;15.59
6528;BME280;64597;42.664;23.256;2023-07-30T10:15:34;94261.63;;;40.15;15.34
6528;BME280;64597;42.664;23.256;2023-07-30T10:18:00;94257.28;;;39.98;15.99
6528;BME280;64597;42.664;23.256;2023-07-30T10:20:27;94261.00;;;39.72;16.63
6528;BME280;64597;42.664;23.256;2023-07-30T10:22:55;94259.91;;;39.85;16.15
6528;BME280;64597;42.664;23.256;2023-07-30T10:25:22;94253.50;;;40.08;15.76
6528;BME280;64597;42.664;23.256;2023-07-30T10:27:52;94241.34;;;40.38;15.88
6528;BME280;64597;42.664;23.256;2023-07-30T10:30:19;94244.81;;;40.58;15.69
6528;BME280;64597;42.664;23.256;2023-07-30T10:33:04;94248.16;;;40.65;15.81
6528;BME280;64597;42.664;23.256;2023-07-30T10:35:42;94247.78;;;40.95;15.86
6528;BME280;64597;42.664;23.256;2023-07-30T10:38:20;94243.78;;;41.13;14.70
6528;BME280;64597;42.664;23.256;2023-07-30T10:41:12;94232.38;;;40.82;15.38
6528;BME280;64597;42.664;23.256;2023-07-30T10:43:43;94219.28;;;40.02;15.41
6528;BME280;64597;42.664;23.256;2023-07-30T10:46:11;94229.56;;;40.01;15.71
6528;BME280;64597;42.664;23.256;2023-07-30T10:48:41;94220.00;;;40.06;15.79
6528;BME280;64597;42.664;23.256;2023-07-30T10:51:08;94198.53;;;39.78;15.33
6528;BME280;64597;42.664;23.256;2023-07-30T10:53:34;94203.75;;;39.36;16.15
6528;BME280;64597;42.664;23.256;2023-07-30T10:56:03;94211.72;;;39.50;16.19
6528;BME280;64597;42.664;23.256;2023-07-30T10:58:30;94204.03;;;39.62;16.39
6528;BME280;64597;42.664;23.256;2023-07-30T11:00:57;94204.75;;;39.82;16.01
6528;BME280;64597;42.664;23.256;2023-07-30T11:03:26;94196.56;;;39.94;16.04
6528;BME280;64597;42.664;23.256;2023-07-30T11:05:53;94196.13;;;39.80;15.31
6528;BME280;64597;42.664;23.256;2023-07-30T11:08:19;94198.25;;;39.52;15.72
6528;BME280;64597;42.664;23.256;2023-07-30T11:10:45;94198.16;;;39.60;16.44
6528;BME280;64597;42.664;23.256;2023-07-30T11:13:14;94183.25;;;39.73;16.31
6528;BME280;64597;42.664;23.256;2023-07-30T11:15:46;94175.88;;;39.67;16.00
6528;BME280;64597;42.664;23.256;2023-07-30T11:18:12;94182.56;;;39.49;16.49
6528;BME280;64597;42.664;23.256;2023-07-30T11:20:38;94174.47;;;39.23;17.08
6528;BME280;64597;42.664;23.256;2023-07-30T11:23:21;94173.69;;;39.22;16.63
6528;BME280;64597;42.664;23.256;2023-07-30T11:25:48;94174.03;;;39.24;16.44
6528;BME280;64597;42.664;23.256;2023-07-30T11:28:14;94169.56;;;39.30;16.52
6528;BME280;64597;42.664;23.256;2023-07-30T11:30:39;94165.41;;;39.22;16.69
6528;BME280;64597;42.664;23.256;2023-07-30T11:33:07;94171.84;;;39.35;16.83
6528;BME280;64597;42.664;23.256;2023-07-30T11:35:32;94150.28;;;39.46;16.54
6528;BME280;64597;42.664;23.256;2023-07-30T11:37:58;94155.91;;;39.43;16.21
6528;BME280;64597;42.664;23.256;2023-07-30T11:40:24;94146.16;;;38.99;16.09
6528;BME280;64597;42.664;23.256;2023-07-30T11:42:50;94148.69;;;38.70;16.22
6528;BME280;64597;42.664;23.256;2023-07-30T11:45:20;94139.78;;;38.40;16.90
6528;BME280;64597;42.664;23.256;2023-07-30T11:47:47;94140.50;;;38.44;17.11
6528;BME280;64597;42.664;23.256;2023-07-30T11:50:12;94140.50;;;38.44;17.02
6528;BME280;64597;42.664;23.256;2023-07-30T11:52:54;94132.31;;;38.40;17.55
6528;BME280;64597;42.664;23.256;2023-07-30T11:55:20;94128.41;;;38.38;17.17
6528;BME280;64597;42.664;23.256;2023-07-30T11:57:46;94120.69;;;38.29;16.54
6528;BME280;64597;42.664;23.256;2023-07-30T12:00:12;94122.78;;;38.22;17.67
6528;BME280;64597;42.664;23.256;2023-07-30T12:02:38;94114.63;;;38.38;17.25
6528;BME280;64597;42.664;23.256;2023-07-30T12:05:04;94090.44;;;38.26;17.07
6528;BME280;64597;42.664;23.256;2023-07-30T12:07:33;94115.84;;;38.37;17.46
6528;BME280;64597;42.664;23.256;2023-07-30T12:10:09;94100.72;;;38.45;16.89
6528;BME280;64597;42.664;23.256;2023-07-30T12:12:34;94102.00;;;38.40;17.00
6528;BME280;64597;42.664;23.256;2023-07-30T12:15:00;94097.91;;;38.48;17.33
6528;BME280;64597;42.664;23.256;2023-07-30T12:17:25;94078.81;;;38.38;17.06
6528;BME280;64597;42.664;23.256;2023-07-30T12:19:51;94095.34;;;38.38;16.62
6528;BME280;64597;42.664;23.256;2023-07-30T12:22:16;94096.69;;;38.07;17.27
6528;BME280;64597;42.664;23.256;2023-07-30T12:24:41;94081.53;;;37.95;17.53
6528;BME280;64597;42.664;23.256;2023-07-30T12:27:07;94089.56;;;37.86;17.95
6528;BME280;64597;42.664;23.256;2023-07-30T12:29:32;94089.00;;;37.94;17.57
6528;BME280;64597;42.664;23.256;2023-07-30T12:31:57;94077.25;;;37.94;17.01
6528;BME280;64597;42.664;23.256;2023-07-30T12:34:23;94080.03;;;37.90;17.22
6528;BME280;64597;42.664;23.256;2023-07-30T12:36:49;94089.50;;;37.89;17.06
6528;BME280;64597;42.664;23.256;2023-07-30T12:39:14;94081.59;;;37.91;18.01
6528;BME280;64597;42.664;23.256;2023-07-30T12:41:40;94075.38;;;37.87;17.44
6528;BME280;64597;42.664;23.256;2023-07-30T12:44:05;94069.22;;;37.80;18.39
6528;BME280;64597;42.664;23.256;2023-07-30T12:46:31;94049.84;;;37.60;18.01
6528;BME280;64597;42.664;23.256;2023-07-30T12:48:58;94057.81;;;37.55;18.02
6528;BME280;64597;42.664;23.256;2023-07-30T12:51:32;94063.91;;;37.43;17.70
6528;BME280;64597;42.664;23.256;2023-07-30T12:53:57;94068.88;;;37.25;18.03
6528;BME280;64597;42.664;23.256;2023-07-30T12:56:23;94055.22;;;37.17;18.15